Time;durP1;ratioP1;P1;durP2;ratioP2;P2;SDS_P1;SDS_P2;PMS_P1;PMS_P2;Temp;Humidity;BMP_temperature;BMP_pressure;BME280_temperature;BME280_humidity;BME280_pressure;Samples;Min_cycle;Max_cycle;Signal;HPM_P1;HPM_P2
2023/04/01 00:00:30;;;;;;;0.70;0.70;;;10.70;99.90;;;;;;5020491;28;20834;-79
2023/04/01 00:02:56;;;;;;;0.80;0.80;;;10.70;99.90;;;;;;5019650;28;20052;-79
2023/04/01 00:05:24;;;;;;;0.70;0.70;;;10.60;99.90;;;;;;5017350;28;20041;-79
2023/04/01 00:07:50;;;;;;;0.70;0.70;;;10.60;99.90;;;;;;5022281;28;20047;-79
2023/04/01 00:10:17;;;;;;;0.80;0.80;;;10.60;99.90;;;;;;5020443;28;20037;-79
2023/04/01 00:12:43;;;;;;;0.70;0.70;;;10.70;99.90;;;;;;5001028;28;20095;-80
2023/04/01 00:15:11;;;;;;;0.70;0.70;;;10.60;99.90;;;;;;5016359;28;20060;-79
2023/04/01 00:17:37;;;;;;;0.80;0.80;;;10.70;99.90;;;;;;5021698;28;20147;-80
2023/04/01 00:20:05;;;;;;;0.70;0.70;;;10.70;99.90;;;;;;5023909;28;20537;-80
2023/04/01 00:22:31;;;;;;;0.70;0.70;;;10.70;99.90;;;;;;5016843;28;20068;-80
2023/04/01 00:24:56;;;;;;;0.70;0.70;;;10.60;99.90;;;;;;5002557;28;20544;-80
2023/04/01 00:27:22;;;;;;;0.70;0.70;;;10.60;99.90;;;;;;5021438;28;20044;-80
2023/04/01 00:29:48;;;;;;;0.70;0.70;;;10.60;99.90;;;;;;5022694;28;20097;-80
2023/04/01 00:32:14;;;;;;;0.70;0.70;;;10.60;99.90;;;;;;5003604;28;20083;-80
2023/04/01 00:34:40;;;;;;;0.70;0.70;;;10.50;99.90;;;;;;5025740;28;20071;-80
2023/04/01 00:37:07;;;;;;;0.80;0.80;;;10.50;99.90;;;;;;4996128;28;20056;-80
2023/04/01 00:39:34;;;;;;;0.70;0.70;;;10.50;99.90;;;;;;5000438;28;20080;-81
2023/04/01 00:42:00;;;;;;;0.80;0.80;;;10.50;99.90;;;;;;5020653;28;20037;-81
2023/04/01 00:44:32;;;;;;;0.70;0.70;;;10.50;99.90;;;;;;5007003;28;20053;-80
2023/04/01 00:46:58;;;;;;;0.70;0.70;;;10.50;99.90;;;;;;5002189;28;20114;-80
2023/04/01 00:49:29;;;;;;;0.70;0.70;;;10.50;99.90;;;;;;5005599;28;20529;-80
2023/04/01 00:51:58;;;;;;;0.70;0.70;;;10.40;99.90;;;;;;5002214;28;20507;-81
2023/04/01 00:54:26;;;;;;;0.60;0.60;;;10.50;99.90;;;;;;4986095;28;20061;-81
2023/04/01 00:57:16;;;;;;;0.70;0.70;;;10.40;99.90;;;;;;4997153;28;20337;-80
2023/04/01 00:59:50;;;;;;;0.80;0.80;;;10.40;99.90;;;;;;4992027;28;20056;-80
2023/04/01 01:02:17;;;;;;;0.70;0.70;;;10.50;99.90;;;;;;5019227;28;20083;-80
2023/04/01 01:04:42;;;;;;;0.60;0.60;;;10.60;99.90;;;;;;5004191;28;20041;-81
2023/04/01 01:07:26;;;;;;;0.65;0.65;;;10.50;99.90;;;;;;4985271;28;20041;-80
2023/04/01 01:10:04;;;;;;;0.70;0.70;;;10.40;99.90;;;;;;5003213;28;20611;-81
2023/04/01 01:12:33;;;;;;;0.70;0.70;;;10.50;99.90;;;;;;5019832;28;20102;-80
2023/04/01 01:15:13;;;;;;;0.70;0.70;;;10.50;99.90;;;;;;5019359;28;20041;-80
2023/04/01 01:17:56;;;;;;;0.70;0.70;;;10.60;99.90;;;;;;5020077;28;20110;-80
2023/04/01 01:20:33;;;;;;;0.70;0.70;;;10.50;99.90;;;;;;5019423;28;20672;-79
2023/04/01 01:23:18;;;;;;;0.60;0.60;;;10.50;99.90;;;;;;5020406;28;20036;-80
2023/04/01 01:26:02;;;;;;;0.70;0.70;;;10.60;99.90;;;;;;5010473;28;20047;-80
2023/04/01 01:29:01;;;;;;;0.70;0.70;;;10.50;99.90;;;;;;5002644;28;20055;-80
2023/04/01 01:31:30;;;;;;;0.70;0.70;;;10.50;99.90;;;;;;5003376;28;20048;-81
2023/04/01 01:34:07;;;;;;;0.70;0.70;;;10.50;99.90;;;;;;5019181;28;20053;-80
2023/04/01 01:36:37;;;;;;;0.60;0.60;;;10.40;99.90;;;;;;5013971;28;20056;-80
2023/04/01 01:39:06;;;;;;;0.70;0.70;;;10.50;99.90;;;;;;5017268;28;20037;-80
2023/04/01 01:41:34;;;;;;;0.70;0.70;;;10.50;99.90;;;;;;5000256;28;20059;-80
2023/04/01 01:44:03;;;;;;;0.70;0.70;;;10.60;99.90;;;;;;5021886;28;20040;-80
2023/04/01 01:46:30;;;;;;;0.70;0.70;;;10.50;99.90;;;;;;5021513;28;20115;-80
2023/04/01 01:48:58;;;;;;;0.70;0.70;;;10.40;99.90;;;;;;5017904;28;20072;-80
2023/04/01 01:51:26;;;;;;;0.70;0.70;;;10.50;99.90;;;;;;4983714;28;20498;-80
2023/04/01 01:53:52;;;;;;;0.70;0.70;;;10.50;99.90;;;;;;5000836;28;20036;-80
2023/04/01 01:56:21;;;;;;;0.70;0.70;;;10.40;99.90;;;;;;4998892;28;20081;-80
2023/04/01 01:58:54;;;;;;;0.70;0.70;;;10.50;99.90;;;;;;5000314;28;20051;-80
2023/04/01 02:01:25;;;;;;;0.70;0.70;;;10.40;99.90;;;;;;5021587;28;20052;-80
2023/04/01 02:03:52;;;;;;;0.70;0.70;;;10.40;99.90;;;;;;5004450;28;20033;-80
2023/04/01 02:06:21;;;;;;;0.70;0.70;;;10.50;99.90;;;;;;5016094;28;20045;-80
2023/04/01 02:08:51;;;;;;;0.70;0.70;;;10.40;99.90;;;;;;4999844;28;20064;-80
2023/04/01 02:11:21;;;;;;;0.73;0.73;;;10.30;99.90;;;;;;5002048;28;20124;-80
2023/04/01 02:14:01;;;;;;;0.70;0.70;;;10.50;99.90;;;;;;5016612;28;20861;-80
2023/04/01 02:16:40;;;;;;;0.60;0.60;;;10.50;99.90;;;;;;5014401;28;20414;-80
2023/04/01 02:19:09;;;;;;;0.70;0.70;;;10.30;99.90;;;;;;5020705;28;20045;-80
2023/04/01 02:21:36;;;;;;;0.60;0.60;;;10.40;99.90;;;;;;5021530;28;20048;-80
2023/04/01 02:24:06;;;;;;;0.70;0.70;;;10.50;99.90;;;;;;5000795;28;20123;-81
2023/04/01 02:26:34;;;;;;;0.60;0.60;;;10.50;99.90;;;;;;5001801;28;20142;-80
2023/04/01 02:29:01;;;;;;;0.70;0.70;;;10.40;99.90;;;;;;5017381;28;20043;-80
2023/04/01 02:31:27;;;;;;;0.70;0.70;;;10.50;99.90;;;;;;5005256;28;20052;-80
2023/04/01 02:33:54;;;;;;;0.70;0.70;;;10.40;99.90;;;;;;5005329;28;20524;-80
2023/04/01 02:36:20;;;;;;;0.60;0.60;;;10.40;99.90;;;;;;5023138;28;20098;-80
2023/04/01 02:38:47;;;;;;;0.70;0.70;;;10.40;99.90;;;;;;5013575;28;20132;-80
2023/04/01 02:41:13;;;;;;;0.60;0.60;;;10.50;99.90;;;;;;4996514;28;20060;-80
2023/04/01 02:43:39;;;;;;;0.70;0.70;;;10.50;99.90;;;;;;4997286;28;20049;-80
2023/04/01 02:46:05;;;;;;;0.65;0.65;;;10.40;99.90;;;;;;4999487;28;20048;-80
2023/04/01 02:48:31;;;;;;;0.60;0.60;;;10.50;99.90;;;;;;5003779;28;20103;-80
2023/04/01 02:50:56;;;;;;;0.60;0.60;;;10.60;99.90;;;;;;5005682;28;20254;-80
2023/04/01 02:53:22;;;;;;;0.70;0.70;;;10.50;99.90;;;;;;5017881;28;20624;-80
2023/04/01 02:55:50;;;;;;;0.68;0.68;;;10.40;99.90;;;;;;5014637;28;20110;-80
2023/04/01 02:58:16;;;;;;;0.65;0.65;;;10.40;99.90;;;;;;4998729;28;20060;-80
2023/04/01 03:00:42;;;;;;;0.60;0.60;;;10.50;99.90;;;;;;5019538;28;20052;-80
2023/04/01 03:03:09;;;;;;;0.70;0.70;;;10.50;99.90;;;;;;5006451;28;20044;-80
2023/04/01 03:05:34;;;;;;;0.60;0.60;;;10.60;99.90;;;;;;4999929;28;20037;-80
2023/04/01 03:08:00;;;;;;;0.70;0.70;;;10.50;99.90;;;;;;5001582;28;20107;-80
2023/04/01 03:10:26;;;;;;;0.60;0.60;;;10.50;99.90;;;;;;5014866;28;20136;-80
2023/04/01 03:12:52;;;;;;;0.70;0.70;;;10.60;99.90;;;;;;4980491;28;20806;-80
2023/04/01 03:15:18;;;;;;;0.65;0.65;;;10.50;99.90;;;;;;4971073;28;20077;-80
2023/04/01 03:17:43;;;;;;;0.70;0.70;;;10.60;99.90;;;;;;5018869;28;20068;-80
2023/04/01 03:20:10;;;;;;;0.70;0.70;;;10.60;99.90;;;;;;5002679;28;20040;-80
2023/04/01 03:22:37;;;;;;;0.70;0.70;;;10.60;99.90;;;;;;4999593;28;20045;-80
2023/04/01 03:25:04;;;;;;;0.70;0.70;;;10.60;99.90;;;;;;4999753;28;20534;-79
2023/04/01 03:27:35;;;;;;;0.70;0.70;;;10.50;99.90;;;;;;5022502;28;20033;-80
2023/04/01 03:30:03;;;;;;;0.73;0.73;;;10.50;99.90;;;;;;5003510;28;20045;-80
2023/04/01 03:32:28;;;;;;;0.70;0.70;;;10.50;99.90;;;;;;5002069;28;20508;-80
2023/04/01 03:34:54;;;;;;;0.70;0.70;;;10.50;99.90;;;;;;5017525;28;20171;-80
2023/04/01 03:37:20;;;;;;;0.70;0.70;;;10.50;99.90;;;;;;5003289;28;20448;-80
2023/04/01 03:39:46;;;;;;;0.68;0.68;;;10.50;99.90;;;;;;4998947;28;20091;-79
2023/04/01 03:42:12;;;;;;;0.70;0.70;;;10.50;99.90;;;;;;5005014;28;20045;-80
2023/04/01 03:44:37;;;;;;;0.70;0.70;;;10.60;99.90;;;;;;5005974;28;20666;-80
2023/04/01 03:47:03;;;;;;;0.60;0.60;;;10.50;99.90;;;;;;5021975;28;20125;-79
2023/04/01 03:49:29;;;;;;;0.60;0.60;;;10.50;99.90;;;;;;5018313;28;20570;-80
2023/04/01 03:51:55;;;;;;;0.70;0.70;;;10.60;99.90;;;;;;5021525;28;20397;-80
2023/04/01 03:54:20;;;;;;;0.70;0.70;;;10.50;99.90;;;;;;5007131;28;20143;-80
2023/04/01 03:56:46;;;;;;;0.70;0.70;;;10.60;99.90;;;;;;5006443;28;20053;-80
2023/04/01 03:59:12;;;;;;;0.70;0.70;;;10.60;99.90;;;;;;4988800;28;20073;-80
2023/04/01 04:01:38;;;;;;;0.70;0.70;;;10.40;99.90;;;;;;5009075;28;20052;-80
2023/04/01 04:04:04;;;;;;;0.70;0.70;;;10.50;99.90;;;;;;5029448;28;20049;-80
2023/04/01 04:06:30;;;;;;;0.60;0.60;;;10.30;99.90;;;;;;5007886;28;20785;-80
2023/04/01 04:08:55;;;;;;;0.70;0.70;;;10.40;99.90;;;;;;5004841;28;20128;-79
2023/04/01 04:11:22;;;;;;;0.60;0.60;;;10.50;99.90;;;;;;5030175;28;20060;-80
2023/04/01 04:13:48;;;;;;;0.70;0.70;;;10.40;99.90;;;;;;5040730;28;20084;-80
2023/04/01 04:16:15;;;;;;;0.60;0.60;;;10.30;99.90;;;;;;5019605;28;20069;-80
2023/04/01 04:18:40;;;;;;;0.60;0.60;;;10.20;99.90;;;;;;5024688;28;20457;-80
2023/04/01 04:21:06;;;;;;;0.60;0.60;;;10.40;99.90;;;;;;5019483;28;20079;-80
2023/04/01 04:23:33;;;;;;;0.70;0.70;;;10.20;99.90;;;;;;5021562;28;20072;-80
2023/04/01 04:26:06;;;;;;;0.60;0.60;;;10.30;99.90;;;;;;5018558;28;20120;-80
2023/04/01 04:28:31;;;;;;;0.70;0.70;;;10.20;99.90;;;;;;5020880;28;20053;-80
2023/04/01 04:30:58;;;;;;;0.60;0.60;;;10.50;99.90;;;;;;5022597;28;20474;-80
2023/04/01 04:33:24;;;;;;;0.60;0.60;;;10.30;99.90;;;;;;5038650;28;20063;-80
2023/04/01 04:35:50;;;;;;;0.60;0.60;;;10.40;99.90;;;;;;5017052;28;20051;-80
2023/04/01 04:38:16;;;;;;;0.60;0.60;;;10.50;99.90;;;;;;5019981;28;20120;-80
2023/04/01 04:40:48;;;;;;;0.70;0.70;;;10.40;99.90;;;;;;5020538;28;20394;-80
2023/04/01 04:43:15;;;;;;;0.70;0.70;;;10.40;99.90;;;;;;5039797;28;20052;-80
2023/04/01 04:45:41;;;;;;;0.60;0.60;;;10.20;99.90;;;;;;5018640;28;20711;-81
2023/04/01 04:48:15;;;;;;;0.60;0.60;;;10.30;99.90;;;;;;5037801;28;20155;-80
2023/04/01 04:50:41;;;;;;;0.60;0.60;;;10.30;99.90;;;;;;5019833;28;20551;-80
2023/04/01 04:53:10;;;;;;;0.60;0.60;;;10.30;99.90;;;;;;5036078;28;20040;-80
2023/04/01 04:55:36;;;;;;;0.60;0.60;;;10.50;99.90;;;;;;5017696;28;20045;-80
2023/04/01 04:58:01;;;;;;;0.60;0.60;;;10.30;99.90;;;;;;5018878;28;20048;-80
2023/04/01 05:00:27;;;;;;;0.68;0.68;;;10.20;99.90;;;;;;5039168;28;20502;-80
2023/04/01 05:02:53;;;;;;;0.60;0.60;;;10.20;99.90;;;;;;5043096;28;20677;-80
2023/04/01 05:05:19;;;;;;;0.60;0.60;;;10.40;99.90;;;;;;5017684;28;20064;-80
2023/04/01 05:07:44;;;;;;;0.65;0.65;;;10.20;99.90;;;;;;5017936;28;20131;-81
2023/04/01 05:10:10;;;;;;;0.60;0.60;;;10.40;99.90;;;;;;5019849;28;20055;-80
2023/04/01 05:12:38;;;;;;;0.60;0.60;;;10.40;99.90;;;;;;5019903;28;20621;-80
2023/04/01 05:15:07;;;;;;;0.60;0.60;;;10.40;99.90;;;;;;5014990;28;20052;-80
2023/04/01 05:17:33;;;;;;;0.60;0.60;;;10.40;99.90;;;;;;5034652;28;20564;-80
2023/04/01 05:19:59;;;;;;;0.60;0.60;;;10.20;99.90;;;;;;5018002;28;20057;-80
2023/04/01 05:22:25;;;;;;;0.60;0.60;;;10.40;99.90;;;;;;5004342;28;20128;-80
2023/04/01 05:24:51;;;;;;;0.70;0.70;;;10.40;99.90;;;;;;5001618;28;20079;-80
2023/04/01 05:27:17;;;;;;;0.70;0.70;;;10.30;99.90;;;;;;5032472;28;20545;-80
2023/04/01 05:29:43;;;;;;;0.60;0.60;;;10.20;99.90;;;;;;5037616;28;20052;-80
2023/04/01 05:32:08;;;;;;;0.70;0.70;;;10.50;99.90;;;;;;5018920;28;20044;-80
2023/04/01 05:34:34;;;;;;;0.70;0.70;;;10.30;99.90;;;;;;5017451;28;20746;-80
2023/04/01 05:37:00;;;;;;;0.60;0.60;;;10.40;99.90;;;;;;5034803;28;20045;-80
2023/04/01 05:39:26;;;;;;;0.60;0.60;;;10.30;99.90;;;;;;5017098;28;20041;-80
2023/04/01 05:41:51;;;;;;;0.60;0.60;;;10.50;99.90;;;;;;5033993;28;20057;-80
2023/04/01 05:44:17;;;;;;;0.60;0.60;;;10.50;99.90;;;;;;5018071;28;20879;-80
2023/04/01 05:46:43;;;;;;;0.60;0.60;;;10.40;99.90;;;;;;5017401;28;20665;-80
2023/04/01 05:49:08;;;;;;;0.60;0.60;;;10.30;99.90;;;;;;5014042;28;20053;-80
2023/04/01 05:51:34;;;;;;;0.60;0.60;;;10.30;99.90;;;;;;5030716;28;20025;-81
2023/04/01 05:54:00;;;;;;;0.60;0.60;;;10.50;99.90;;;;;;5033903;28;20044;-80
2023/04/01 05:56:25;;;;;;;0.60;0.60;;;10.50;99.90;;;;;;5031873;28;20553;-80
2023/04/01 05:58:53;;;;;;;0.60;0.60;;;10.30;99.90;;;;;;5002202;28;20678;-80
2023/04/01 06:01:20;;;;;;;0.60;0.60;;;10.50;99.90;;;;;;5016694;28;20041;-80
2023/04/01 06:03:46;;;;;;;0.60;0.60;;;10.60;99.90;;;;;;5034326;28;20045;-79
2023/04/01 06:06:16;;;;;;;0.60;0.60;;;10.60;99.90;;;;;;5037358;28;20437;-80
2023/04/01 06:08:42;;;;;;;0.60;0.60;;;10.40;99.90;;;;;;5020185;28;20049;-80
2023/04/01 06:11:18;;;;;;;0.60;0.60;;;10.40;99.90;;;;;;5038083;28;20072;-80
2023/04/01 06:14:05;;;;;;;0.70;0.70;;;10.40;99.90;;;;;;5019865;28;20051;-80
2023/04/01 06:16:49;;;;;;;0.60;0.60;;;10.40;99.90;;;;;;5032215;28;20045;-80
2023/04/01 06:19:47;;;;;;;0.60;0.60;;;10.60;99.90;;;;;;5002711;28;20041;-80
2023/04/01 06:22:22;;;;;;;0.60;0.60;;;10.50;99.90;;;;;;5018331;28;20037;-80
2023/04/01 06:25:25;;;;;;;0.60;0.60;;;10.40;99.90;;;;;;5016929;28;20037;-80
2023/04/01 06:27:57;;;;;;;0.60;0.60;;;10.60;99.90;;;;;;5034086;28;20076;-80
2023/04/01 06:30:40;;;;;;;0.60;0.60;;;10.60;99.90;;;;;;5018857;28;20068;-80
2023/04/01 06:33:25;;;;;;;0.60;0.60;;;10.70;99.90;;;;;;5014214;28;20071;-81
2023/04/01 06:36:18;;;;;;;0.60;0.60;;;10.50;99.90;;;;;;5016329;28;20081;-80
2023/04/01 06:39:13;;;;;;;0.60;0.60;;;10.60;99.90;;;;;;5017849;28;20090;-80
2023/04/01 06:41:54;;;;;;;0.60;0.60;;;10.50;99.90;;;;;;5032429;28;20056;-80
2023/04/01 06:44:46;;;;;;;0.60;0.60;;;10.80;99.90;;;;;;5031636;28;20124;-80
2023/04/01 06:47:14;;;;;;;0.60;0.60;;;10.70;99.90;;;;;;5021429;28;20072;-80
2023/04/01 06:49:55;;;;;;;0.60;0.60;;;10.60;99.90;;;;;;5009558;28;20497;-80
2023/04/01 06:52:30;;;;;;;0.60;0.60;;;10.80;99.90;;;;;;5024843;28;20539;-80
2023/04/01 06:55:07;;;;;;;0.60;0.60;;;10.70;99.90;;;;;;5012455;28;20949;-80
2023/04/01 06:57:40;;;;;;;0.60;0.60;;;10.60;99.90;;;;;;5018987;28;20052;-80
2023/04/01 07:00:32;;;;;;;0.60;0.60;;;10.60;99.90;;;;;;5020010;28;20095;-80
2023/04/01 07:03:01;;;;;;;0.60;0.60;;;10.70;99.90;;;;;;5025865;28;20513;-80
2023/04/01 07:05:30;;;;;;;0.60;0.60;;;10.70;99.90;;;;;;5017481;28;20537;-80
2023/04/01 07:08:00;;;;;;;0.60;0.60;;;10.70;99.90;;;;;;5019252;28;20051;-80
2023/04/01 07:10:50;;;;;;;0.60;0.60;;;10.90;99.90;;;;;;5016122;28;20050;-80
2023/04/01 07:13:24;;;;;;;0.50;0.50;;;10.90;99.90;;;;;;5019472;28;20045;-81
2023/04/01 07:16:08;;;;;;;0.60;0.60;;;10.90;99.90;;;;;;5013298;28;20053;-81
2023/04/01 07:18:54;;;;;;;0.63;0.63;;;10.90;99.90;;;;;;5017818;28;20144;-80
2023/04/01 07:21:23;;;;;;;0.52;0.52;;;10.70;99.90;;;;;;5018866;28;20048;-80
2023/04/01 07:23:51;;;;;;;0.60;0.60;;;10.80;99.90;;;;;;5012314;28;20056;-81
2023/04/01 07:26:21;;;;;;;0.60;0.60;;;10.80;99.90;;;;;;5016327;28;20040;-81
2023/04/01 07:28:50;;;;;;;0.60;0.60;;;10.70;99.90;;;;;;5038691;28;20960;-81
2023/04/01 07:31:32;;;;;;;0.52;0.52;;;10.80;99.90;;;;;;5018467;28;20379;-80
2023/04/01 07:34:17;;;;;;;0.50;0.50;;;10.90;99.90;;;;;;5021343;28;20045;-81
2023/04/01 07:36:48;;;;;;;0.60;0.60;;;10.80;99.90;;;;;;5021644;28;20076;-80
2023/04/01 07:39:20;;;;;;;0.60;0.60;;;10.80;99.90;;;;;;5023157;28;20045;-80
2023/04/01 07:42:06;;;;;;;0.60;0.60;;;11.00;99.90;;;;;;5017640;28;20060;-80
2023/04/01 07:44:40;;;;;;;0.50;0.50;;;11.00;99.90;;;;;;5018347;28;20049;-81
2023/04/01 07:47:16;;;;;;;0.50;0.50;;;10.80;99.90;;;;;;5021365;28;20049;-81
2023/04/01 07:50:02;;;;;;;0.60;0.60;;;10.90;99.90;;;;;;5037638;28;20111;-80
2023/04/01 07:52:45;;;;;;;0.60;0.60;;;11.10;99.90;;;;;;5021493;28;20049;-81
2023/04/01 07:55:31;;;;;;;0.70;0.70;;;11.00;99.90;;;;;;5030070;28;20049;-80
2023/04/01 07:58:31;;;;;;;0.60;0.60;;;11.10;99.90;;;;;;5020741;28;20037;-81
2023/04/01 08:01:21;;;;;;;0.60;0.60;;;11.00;99.90;;;;;;4975517;28;20053;-80
2023/04/01 08:03:59;;;;;;;0.60;0.60;;;10.90;99.90;;;;;;5005375;28;20044;-80
2023/04/01 08:06:25;;;;;;;0.60;0.60;;;10.80;99.90;;;;;;4999784;28;20124;-81
2023/04/01 08:09:09;;;;;;;0.60;0.60;;;10.90;99.90;;;;;;5000614;28;20152;-80
2023/04/01 08:12:01;;;;;;;0.60;0.60;;;10.90;99.90;;;;;;5002542;28;20124;-80
2023/04/01 08:15:09;;;;;;;0.60;0.60;;;11.00;99.90;;;;;;5004146;28;20110;-80
2023/04/01 08:17:53;;;;;;;0.60;0.60;;;11.10;99.90;;;;;;4994363;28;20084;-80
2023/04/01 08:20:37;;;;;;;0.60;0.60;;;10.90;99.90;;;;;;5013950;28;20087;-81
2023/04/01 08:23:24;;;;;;;0.60;0.60;;;11.30;99.90;;;;;;5011566;28;20555;-81
2023/04/01 08:26:08;;;;;;;0.60;0.60;;;11.10;99.90;;;;;;5007913;28;20382;-80
2023/04/01 08:28:34;;;;;;;;;;;11.20;99.90;;;;;;5010756;28;20041;-80
2023/04/01 08:31:11;;;;;;;0.60;0.60;;;11.30;99.90;;;;;;5011660;28;19978;-80
2023/04/01 08:33:38;;;;;;;0.60;0.60;;;11.10;99.90;;;;;;5009570;28;20564;-81
2023/04/01 08:36:24;;;;;;;0.60;0.60;;;11.20;99.90;;;;;;5008815;28;21405;-81
2023/04/01 08:39:06;;;;;;;0.50;0.50;;;11.30;99.90;;;;;;4993854;28;20052;-81
2023/04/01 08:41:54;;;;;;;0.60;0.60;;;11.10;99.90;;;;;;5018175;28;20119;-81
2023/04/01 08:44:41;;;;;;;0.60;0.60;;;11.20;99.90;;;;;;5018599;28;20044;-81
2023/04/01 08:47:39;;;;;;;0.60;0.60;;;11.40;99.90;;;;;;4997333;28;20498;-81
2023/04/01 08:50:42;;;;;;;0.50;0.50;;;11.40;99.90;;;;;;5019564;28;20049;-81
2023/04/01 08:53:25;;;;;;;0.60;0.60;;;11.30;99.90;;;;;;4998322;28;20040;-82
2023/04/01 08:56:03;;;;;;;0.60;0.60;;;11.60;99.90;;;;;;5015688;28;20077;-81
2023/04/01 08:58:53;;;;;;;0.50;0.50;;;11.30;99.90;;;;;;5028516;28;20587;-81
2023/04/01 09:01:33;;;;;;;0.60;0.60;;;11.50;99.90;;;;;;5018131;28;20120;-81
2023/04/01 09:04:18;;;;;;;0.60;0.60;;;11.40;99.90;;;;;;5019155;28;20565;-81
2023/04/01 09:06:49;;;;;;;0.60;0.60;;;11.30;99.90;;;;;;5025904;28;20055;-81
2023/04/01 09:09:59;;;;;;;0.60;0.60;;;11.30;99.90;;;;;;5002622;28;20068;-80
2023/04/01 09:12:31;;;;;;;0.60;0.60;;;11.80;99.90;;;;;;4968781;28;20152;-80
2023/04/01 09:15:14;;;;;;;0.60;0.60;;;11.60;99.90;;;;;;5022960;28;20041;-80
2023/04/01 09:18:05;;;;;;;0.60;0.60;;;11.70;99.90;;;;;;5016482;28;20099;-80
2023/04/01 09:21:03;;;;;;;0.60;0.60;;;11.50;99.90;;;;;;5021320;28;20169;-80
2023/04/01 09:23:40;;;;;;;0.60;0.60;;;11.70;99.90;;;;;;4966906;28;20419;-81
2023/04/01 09:26:27;;;;;;;0.60;0.60;;;11.50;99.90;;;;;;5016512;28;20512;-82
2023/04/01 09:28:53;;;;;;;0.60;0.60;;;11.60;99.90;;;;;;5012949;28;21924;-80
2023/04/01 09:31:32;;;;;;;0.60;0.60;;;11.60;99.90;;;;;;5019424;28;20055;-80
2023/04/01 09:34:30;;;;;;;0.60;0.60;;;11.60;99.90;;;;;;5019566;28;20057;-81
2023/04/01 09:37:18;;;;;;;0.60;0.60;;;11.70;99.90;;;;;;5003997;28;20049;-81
2023/04/01 09:40:08;;;;;;;0.50;0.50;;;11.80;99.90;;;;;;5037192;28;20579;-80
2023/04/01 09:42:56;;;;;;;0.60;0.60;;;11.80;99.90;;;;;;5023086;28;20049;-80
2023/04/01 09:45:41;;;;;;;0.60;0.60;;;11.90;99.90;;;;;;5015678;28;20658;-80
2023/04/01 09:48:24;;;;;;;0.60;0.60;;;11.60;99.90;;;;;;5018476;28;20045;-80
2023/04/01 09:51:37;;;;;;;0.60;0.60;;;11.60;99.90;;;;;;4995395;28;20084;-80
2023/04/01 09:54:37;;;;;;;0.60;0.60;;;11.50;99.90;;;;;;5013229;28;20061;-80
2023/04/01 09:57:28;;;;;;;0.60;0.60;;;11.50;99.90;;;;;;5017967;28;20128;-80
2023/04/01 10:00:10;;;;;;;0.60;0.60;;;11.50;99.90;;;;;;5019368;28;20056;-80
2023/04/01 10:03:03;;;;;;;0.60;0.60;;;11.60;99.90;;;;;;5038055;28;20118;-79
2023/04/01 10:05:58;;;;;;;0.60;0.60;;;11.70;99.90;;;;;;5018522;28;20083;-81
2023/04/01 10:08:26;;;;;;;0.60;0.60;;;11.70;99.90;;;;;;4982035;28;20045;-81
2023/04/01 10:11:04;;;;;;;0.60;0.60;;;11.60;99.90;;;;;;5023006;28;20041;-81
2023/04/01 10:13:48;;;;;;;0.70;0.70;;;11.50;99.90;;;;;;5022852;28;20055;-81
2023/04/01 10:16:42;;;;;;;0.60;0.60;;;11.60;99.90;;;;;;4985223;28;20103;-81
2023/04/01 10:19:25;;;;;;;0.60;0.60;;;11.50;99.90;;;;;;5015128;28;20056;-81
2023/04/01 10:22:20;;;;;;;0.70;0.70;;;11.50;99.90;;;;;;5016286;28;20065;-80
2023/04/01 10:24:52;;;;;;;0.68;0.68;;;11.60;99.90;;;;;;5003276;28;20308;-81
2023/04/01 10:27:39;;;;;;;0.60;0.60;;;11.60;99.90;;;;;;5019074;28;20544;-81
2023/04/01 10:30:41;;;;;;;0.60;0.60;;;11.70;99.90;;;;;;5020159;28;20087;-81
2023/04/01 10:33:15;;;;;;;0.60;0.60;;;11.80;99.90;;;;;;5036435;28;20045;-81
2023/04/01 10:36:18;;;;;;;0.60;0.60;;;11.90;99.90;;;;;;5035245;28;20375;-81
2023/04/01 10:39:21;;;;;;;0.60;0.60;;;12.10;99.90;;;;;;5035925;28;20037;-81
2023/04/01 10:42:18;;;;;;;0.60;0.60;;;12.10;99.90;;;;;;5020245;28;20090;-81
2023/04/01 10:45:18;;;;;;;0.60;0.60;;;12.10;99.90;;;;;;5019483;28;20248;-81
2023/04/01 10:48:14;;;;;;;0.60;0.60;;;11.90;99.90;;;;;;5036582;28;20045;-81
2023/04/01 10:51:01;;;;;;;0.60;0.60;;;11.80;99.90;;;;;;5021200;28;20045;-81
2023/04/01 10:53:26;;;;;;;0.60;0.60;;;11.80;99.90;;;;;;5039086;28;20051;-81
2023/04/01 10:56:18;;;;;;;0.60;0.60;;;11.80;99.90;;;;;;4996158;28;20045;-81
2023/04/01 10:59:06;;;;;;;0.60;0.60;;;11.70;99.90;;;;;;5017800;28;20051;-81
2023/04/01 11:02:28;;;;;;;0.60;0.60;;;11.80;99.90;;;;;;5019417;28;20051;-81
2023/04/01 11:05:09;;;;;;;0.50;0.50;;;11.90;99.90;;;;;;5034815;28;20052;-82
2023/04/01 11:07:57;;;;;;;0.50;0.50;;;11.80;99.90;;;;;;5023056;28;20052;-82
2023/04/01 11:11:01;;;;;;;0.60;0.60;;;11.90;99.90;;;;;;5021525;28;20045;-82
2023/04/01 11:13:45;;;;;;;0.60;0.60;;;11.90;99.90;;;;;;5032887;28;20071;-81
2023/04/01 11:16:36;;;;;;;;;;;11.90;99.90;;;;;;4997817;28;20952;-82
2023/04/01 11:19:23;;;;;;;0.70;0.70;;;11.90;99.90;;;;;;5018191;28;19929;-82
2023/04/01 11:22:14;;;;;;;0.60;0.60;;;11.80;99.90;;;;;;5018473;28;20060;-84
2023/04/01 11:25:06;;;;;;;0.60;0.60;;;11.80;99.90;;;;;;5017490;28;20045;-81
2023/04/01 11:28:06;;;;;;;0.60;0.60;;;11.90;99.90;;;;;;4970371;28;20132;-82
2023/04/01 11:30:44;;;;;;;0.60;0.60;;;11.90;99.90;;;;;;5021976;28;20131;-81
2023/04/01 11:33:25;;;;;;;0.60;0.60;;;12.10;99.90;;;;;;5038489;28;20037;-81
2023/04/01 11:36:07;;;;;;;0.60;0.60;;;12.10;99.90;;;;;;5021511;28;20803;-82
2023/04/01 11:38:58;;;;;;;0.60;0.60;;;12.10;99.90;;;;;;5020983;28;20053;-81
2023/04/01 11:41:26;;;;;;;0.60;0.60;;;12.20;99.90;;;;;;5023407;28;20056;-82
2023/04/01 11:44:22;;;;;;;0.60;0.60;;;12.00;99.90;;;;;;5022120;28;20052;-82
2023/04/01 11:47:09;;;;;;;0.60;0.60;;;12.10;99.90;;;;;;5004480;28;20091;-82
2023/04/01 11:49:43;;;;;;;0.60;0.60;;;12.30;99.90;;;;;;5019519;28;20052;-82
2023/04/01 11:52:18;;;;;;;1.45;1.40;;;12.10;99.90;;;;;;5022788;28;20057;-81
2023/04/01 11:55:10;;;;;;;0.60;0.60;;;12.00;99.90;;;;;;5022562;28;20547;-82
2023/04/01 11:58:11;;;;;;;0.60;0.60;;;12.00;99.90;;;;;;5018134;28;20203;-80
2023/04/01 12:00:58;;;;;;;0.60;0.60;;;12.00;99.90;;;;;;5023079;28;20040;-83
2023/04/01 12:03:50;;;;;;;0.60;0.60;;;12.10;99.90;;;;;;5026926;28;20048;-81
2023/04/01 12:06:26;;;;;;;0.60;0.60;;;12.20;99.90;;;;;;5021000;28;20048;-81
2023/04/01 12:09:23;;;;;;;0.55;0.55;;;12.20;99.90;;;;;;5018925;28;20501;-82
2023/04/01 12:12:23;;;;;;;0.60;0.60;;;12.20;99.90;;;;;;5008678;28;20052;-82
2023/04/01 12:15:18;;;;;;;0.60;0.60;;;12.10;99.90;;;;;;5001772;28;20127;-83
2023/04/01 12:18:03;;;;;;;0.60;0.60;;;12.10;99.90;;;;;;5021555;28;20048;-82
2023/04/01 12:20:46;;;;;;;0.60;0.60;;;12.10;99.90;;;;;;5023586;28;20072;-81
2023/04/01 12:23:35;;;;;;;0.50;0.50;;;12.20;99.90;;;;;;5033019;28;20045;-82
2023/04/01 12:26:20;;;;;;;0.50;0.50;;;12.10;99.90;;;;;;5018153;28;20071;-82
2023/04/01 12:28:57;;;;;;;0.60;0.60;;;12.40;99.90;;;;;;5019442;28;20509;-83
2023/04/01 12:31:42;;;;;;;0.60;0.60;;;12.30;99.90;;;;;;5002906;28;20082;-82
2023/04/01 12:34:13;;;;;;;0.60;0.60;;;12.40;99.90;;;;;;5019057;28;20053;-84
2023/04/01 12:36:39;;;;;;;0.60;0.60;;;12.40;99.90;;;;;;5019372;28;20760;-83
2023/04/01 12:39:42;;;;;;;0.50;0.50;;;12.20;99.90;;;;;;5019926;28;20052;-83
2023/04/01 12:42:22;;;;;;;0.60;0.60;;;12.30;99.90;;;;;;5021706;28;20052;-82
2023/04/01 12:45:03;;;;;;;0.60;0.60;;;12.20;99.90;;;;;;5018846;28;20269;-82
2023/04/01 12:47:47;;;;;;;0.60;0.60;;;12.00;99.90;;;;;;5032140;28;20072;-82
2023/04/01 12:50:32;;;;;;;0.60;0.60;;;12.00;99.90;;;;;;5036747;28;20149;-82
2023/04/01 12:53:26;;;;;;;0.50;0.50;;;12.00;99.90;;;;;;5021686;28;20069;-82
2023/04/01 12:55:52;;;;;;;0.60;0.60;;;11.90;99.90;;;;;;4986408;28;20103;-82
2023/04/01 12:58:41;;;;;;;0.60;0.60;;;11.70;99.90;;;;;;5020085;28;20555;-82
2023/04/01 13:01:19;;;;;;;0.60;0.60;;;11.70;99.90;;;;;;5021513;28;20080;-83
2023/04/01 13:03:48;;;;;;;0.60;0.60;;;11.70;99.90;;;;;;5023699;28;20106;-83
2023/04/01 13:06:25;;;;;;;0.60;0.60;;;11.60;99.90;;;;;;5034157;28;20109;-81
2023/04/01 13:08:54;;;;;;;0.60;0.60;;;11.60;99.90;;;;;;5018340;28;20041;-83
2023/04/01 13:11:25;;;;;;;0.60;0.60;;;11.60;99.90;;;;;;5018597;28;20109;-82
2023/04/01 13:14:00;;;;;;;0.57;0.57;;;11.20;99.90;;;;;;5002932;28;20048;-82
2023/04/01 13:16:58;;;;;;;0.60;0.60;;;11.20;99.90;;;;;;5035963;28;20045;-82
2023/04/01 13:19:48;;;;;;;0.60;0.60;;;11.20;99.90;;;;;;5005772;28;20069;-82
2023/04/01 13:22:24;;;;;;;0.60;0.60;;;11.20;99.90;;;;;;5021320;28;20045;-84
2023/04/01 13:25:01;;;;;;;0.60;0.60;;;11.40;99.90;;;;;;5030743;28;20131;-84
2023/04/01 13:27:33;;;;;;;0.60;0.60;;;11.30;99.90;;;;;;5032491;28;20052;-82
2023/04/01 13:30:27;;;;;;;0.60;0.60;;;11.20;99.90;;;;;;5019814;28;20139;-82
2023/04/01 13:33:01;;;;;;;0.60;0.60;;;11.30;99.90;;;;;;5018974;28;20033;-82
2023/04/01 13:36:01;;;;;;;0.60;0.60;;;11.40;99.90;;;;;;5016616;28;20049;-82